createdAt,value
2019-03-03T00:01:47.693Z,99.90
2019-03-03T00:04:17.376Z,99.90
2019-03-03T00:06:46.324Z,99.90
2019-03-03T00:09:15.534Z,99.90
2019-03-03T00:11:44.500Z,99.90
2019-03-03T00:14:13.527Z,99.90
2019-03-03T00:16:42.490Z,99.90
2019-03-03T00:19:11.518Z,99.90
2019-03-03T00:21:40.567Z,99.90
2019-03-03T00:24:09.556Z,99.90
2019-03-03T00:26:38.586Z,99.90
2019-03-03T00:29:07.545Z,99.90
2019-03-03T00:31:38.242Z,99.90
2019-03-03T00:34:07.272Z,99.90
2019-03-03T00:36:53.933Z,99.90
2019-03-03T00:39:40.903Z,99.90
2019-03-03T00:42:34.513Z,99.90
2019-03-03T00:45:19.301Z,99.90
2019-03-03T00:48:07.245Z,99.90
2019-03-03T00:50:45.793Z,99.90
2019-03-03T00:53:24.101Z,99.90
2019-03-03T00:56:08.789Z,99.90
2019-03-03T00:58:44.087Z,99.90
2019-03-03T01:01:21.381Z,99.90
2019-03-03T01:04:05.304Z,99.90
2019-03-03T01:06:56.597Z,99.90
2019-03-03T01:09:45.649Z,99.90
2019-03-03T01:12:41.033Z,99.90
2019-03-03T01:15:28.660Z,99.90
2019-03-03T01:18:16.786Z,99.90
2019-03-03T01:21:03.729Z,99.90
2019-03-03T01:23:47.328Z,99.90
2019-03-03T01:26:16.312Z,99.90
2019-03-03T01:28:45.245Z,99.90
2019-03-03T01:31:14.264Z,99.90
2019-03-03T01:33:43.184Z,99.90
2019-03-03T01:36:12.246Z,99.90
2019-03-03T01:38:41.196Z,99.90
2019-03-03T01:41:10.067Z,99.90
2019-03-03T01:43:41.092Z,99.90
2019-03-03T01:46:12.268Z,99.90
2019-03-03T01:48:41.201Z,99.90
2019-03-03T01:51:10.239Z,99.90
2019-03-03T01:53:39.194Z,99.90
2019-03-03T01:56:08.109Z,99.90
2019-03-03T01:58:37.049Z,99.90
2019-03-03T02:01:06.085Z,99.90
2019-03-03T02:03:35.527Z,99.90
2019-03-03T02:06:06.196Z,99.90
2019-03-03T02:08:35.265Z,99.90
2019-03-03T02:11:04.402Z,99.90
2019-03-03T02:13:33.337Z,99.90
2019-03-03T02:16:02.933Z,99.90
2019-03-03T02:18:31.889Z,99.90
2019-03-03T02:21:00.780Z,99.90
2019-03-03T02:23:29.699Z,99.90
2019-03-03T02:25:58.657Z,99.90
2019-03-03T02:28:27.678Z,99.90
2019-03-03T02:30:56.616Z,99.90
2019-03-03T02:33:25.646Z,99.90
2019-03-03T02:35:54.590Z,99.90
2019-03-03T02:38:23.521Z,99.90
2019-03-03T02:40:52.533Z,99.90
2019-03-03T02:43:23.578Z,99.90
2019-03-03T02:45:52.611Z,99.90
2019-03-03T02:48:21.582Z,99.90
2019-03-03T02:50:50.453Z,99.90
2019-03-03T02:53:19.309Z,99.90
2019-03-03T02:55:48.157Z,99.90
2019-03-03T02:58:17.034Z,99.90
2019-03-03T03:00:54.452Z,99.90
2019-03-03T03:03:23.499Z,99.90
2019-03-03T03:06:20.684Z,99.90
2019-03-03T03:09:24.153Z,99.90
2019-03-03T03:12:23.814Z,99.90
2019-03-03T03:15:10.490Z,99.90
2019-03-03T03:17:45.816Z,99.90
2019-03-03T03:20:42.970Z,99.90
2019-03-03T03:23:26.294Z,99.90
2019-03-03T03:26:14.406Z,99.90
2019-03-03T03:29:04.729Z,99.90
2019-03-03T03:31:58.616Z,99.90
2019-03-03T03:34:35.508Z,99.90
2019-03-03T03:37:13.071Z,99.90
2019-03-03T03:39:53.140Z,99.90
2019-03-03T03:42:54.810Z,99.90
2019-03-03T03:45:39.388Z,99.90
2019-03-03T03:48:32.027Z,99.90
2019-03-03T03:51:30.098Z,99.90
2019-03-03T03:54:20.265Z,99.90
2019-03-03T03:57:04.786Z,99.90
2019-03-03T03:59:44.873Z,99.90
2019-03-03T04:02:31.587Z,99.90
2019-03-03T04:05:10.813Z,99.90
2019-03-03T04:07:55.704Z,99.90
2019-03-03T04:10:37.262Z,99.90
2019-03-03T04:13:23.865Z,99.90
2019-03-03T04:16:15.014Z,99.90
2019-03-03T04:18:56.279Z,99.90
2019-03-03T04:21:43.204Z,99.90
2019-03-03T04:24:37.464Z,99.90
2019-03-03T04:27:24.249Z,99.90
2019-03-03T04:30:03.922Z,99.90
2019-03-03T04:32:41.732Z,99.90
2019-03-03T04:35:25.469Z,99.90
2019-03-03T04:38:08.188Z,99.90
2019-03-03T04:40:59.276Z,99.90
2019-03-03T04:43:47.200Z,99.90
2019-03-03T04:46:33.040Z,99.90
2019-03-03T04:49:12.065Z,99.90
2019-03-03T04:51:58.860Z,99.90
2019-03-03T04:54:45.812Z,99.90
2019-03-03T04:57:39.448Z,99.90
2019-03-03T05:00:40.640Z,99.90
2019-03-03T05:03:40.656Z,99.90
2019-03-03T05:06:27.587Z,99.90
2019-03-03T05:09:05.696Z,99.90
2019-03-03T05:12:27.353Z,99.90
2019-03-03T05:15:00.832Z,99.90
2019-03-03T05:17:51.623Z,99.90
2019-03-03T05:20:21.373Z,99.90
2019-03-03T05:22:50.206Z,99.90
2019-03-03T05:25:19.050Z,99.90
2019-03-03T05:27:47.938Z,99.90
2019-03-03T05:30:16.936Z,99.90
2019-03-03T05:32:45.766Z,99.90
2019-03-03T05:35:14.604Z,99.90
2019-03-03T05:37:43.437Z,99.90
2019-03-03T05:40:12.426Z,99.90
2019-03-03T05:42:41.269Z,99.90
2019-03-03T05:45:10.273Z,99.90
2019-03-03T05:47:39.119Z,99.90
2019-03-03T05:50:08.040Z,99.90
2019-03-03T05:52:36.860Z,99.90
2019-03-03T05:55:05.915Z,99.90
2019-03-03T05:57:34.765Z,99.90
2019-03-03T06:00:03.782Z,99.90
2019-03-03T06:02:32.693Z,99.90
2019-03-03T06:05:01.541Z,99.90
2019-03-03T06:07:30.380Z,99.90
2019-03-03T06:09:59.310Z,99.90
2019-03-03T06:12:28.226Z,99.90
2019-03-03T06:14:57.069Z,99.90
2019-03-03T06:17:25.921Z,99.90
2019-03-03T06:19:54.760Z,99.90
2019-03-03T06:22:23.602Z,99.90
2019-03-03T06:24:52.440Z,99.90
2019-03-03T06:27:21.277Z,99.90
2019-03-03T06:29:50.131Z,99.90
2019-03-03T06:32:18.975Z,99.90
2019-03-03T06:34:47.845Z,99.90
2019-03-03T06:37:16.680Z,99.90
2019-03-03T06:39:45.515Z,99.90
2019-03-03T06:42:14.362Z,99.90
2019-03-03T06:44:43.214Z,99.90
2019-03-03T06:47:12.052Z,99.90
2019-03-03T06:49:41.004Z,99.90
2019-03-03T06:52:09.847Z,99.90
2019-03-03T06:54:38.705Z,99.90
2019-03-03T06:57:07.631Z,99.90
2019-03-03T06:59:37.448Z,99.90
2019-03-03T07:02:06.596Z,99.90
2019-03-03T07:04:35.439Z,99.90
2019-03-03T07:07:04.455Z,99.90
2019-03-03T07:09:33.297Z,99.90
2019-03-03T07:12:02.148Z,99.90
2019-03-03T07:14:31.014Z,99.90
2019-03-03T07:16:59.932Z,99.90
2019-03-03T07:19:28.795Z,99.90
2019-03-03T07:21:57.741Z,99.90
2019-03-03T07:24:26.608Z,99.90
2019-03-03T07:26:55.463Z,99.90
2019-03-03T07:29:24.342Z,99.90
2019-03-03T07:31:53.229Z,99.90
2019-03-03T07:34:22.248Z,99.90
2019-03-03T07:36:51.120Z,99.90
2019-03-03T07:39:20.173Z,99.90
2019-03-03T07:41:49.216Z,99.90
2019-03-03T07:44:18.127Z,99.90
2019-03-03T07:46:47.143Z,99.90
2019-03-03T07:49:15.994Z,99.90
2019-03-03T07:51:44.848Z,99.90
2019-03-03T07:54:13.701Z,99.90
2019-03-03T07:56:42.561Z,99.90
2019-03-03T07:59:11.575Z,99.90
2019-03-03T08:01:40.416Z,99.90
2019-03-03T08:04:09.263Z,99.90
2019-03-03T08:06:38.143Z,99.90
2019-03-03T08:09:08.032Z,99.90
2019-03-03T08:11:36.900Z,99.90
2019-03-03T08:14:05.850Z,99.90
2019-03-03T08:16:34.699Z,99.40
2019-03-03T08:19:03.604Z,99.90
2019-03-03T08:21:32.640Z,99.50
2019-03-03T08:24:01.475Z,99.90
2019-03-03T08:26:30.400Z,99.90
2019-03-03T08:28:59.252Z,99.90
2019-03-03T08:31:28.187Z,99.90
2019-03-03T08:33:57.037Z,99.90
2019-03-03T08:36:25.914Z,99.90
2019-03-03T08:38:54.760Z,99.10
2019-03-03T08:41:23.785Z,99.50
2019-03-03T08:44:14.657Z,99.90
2019-03-03T08:46:48.776Z,99.90
2019-03-03T08:49:22.706Z,99.90
2019-03-03T08:52:19.682Z,99.90
2019-03-03T08:55:07.601Z,99.90
2019-03-03T08:57:54.137Z,99.90
2019-03-03T09:00:45.617Z,99.90
2019-03-03T09:03:34.780Z,99.90
2019-03-03T09:06:14.126Z,99.50
2019-03-03T09:09:01.250Z,98.00
2019-03-03T09:11:52.860Z,97.90
2019-03-03T09:14:40.782Z,97.60
2019-03-03T09:17:27.899Z,96.60
2019-03-03T09:20:14.760Z,95.60
2019-03-03T09:23:08.857Z,95.20
2019-03-03T09:26:02.697Z,95.30
2019-03-03T09:29:00.141Z,93.30
2019-03-03T09:31:49.753Z,93.50
2019-03-03T09:34:43.977Z,92.80
2019-03-03T09:37:30.748Z,93.00
2019-03-03T09:40:10.297Z,92.00
2019-03-03T09:43:01.002Z,91.70
2019-03-03T09:45:47.973Z,94.90
2019-03-03T09:48:45.745Z,92.00
2019-03-03T09:51:31.240Z,90.50
2019-03-03T09:54:34.360Z,88.50
2019-03-03T09:57:21.181Z,87.20
2019-03-03T10:00:12.654Z,87.40
2019-03-03T10:03:09.731Z,92.20
2019-03-03T10:05:52.024Z,90.60
2019-03-03T10:08:43.036Z,85.60
2019-03-03T10:11:40.129Z,80.70
2019-03-03T10:14:37.268Z,78.10
2019-03-03T10:17:14.193Z,77.00
2019-03-03T10:20:10.210Z,76.00
2019-03-03T10:23:04.148Z,75.60
2019-03-03T10:25:50.353Z,74.60
2019-03-03T10:28:44.307Z,71.10
2019-03-03T10:31:28.738Z,71.30
2019-03-03T10:34:13.029Z,71.10
2019-03-03T10:37:09.977Z,70.40
2019-03-03T10:40:08.085Z,69.60
2019-03-03T10:42:59.291Z,67.30
2019-03-03T10:45:41.181Z,66.90
2019-03-03T10:48:27.969Z,66.20
2019-03-03T10:51:21.981Z,65.90
2019-03-03T10:53:56.578Z,66.00
2019-03-03T10:56:44.665Z,65.10
2019-03-03T10:59:55.088Z,63.70
2019-03-03T11:02:41.105Z,60.70
2019-03-03T11:05:34.846Z,60.60
2019-03-03T11:08:26.016Z,60.60
2019-03-03T11:11:14.728Z,58.60
2019-03-03T11:14:18.270Z,58.80
2019-03-03T11:17:24.721Z,58.90
2019-03-03T11:20:01.068Z,58.90
2019-03-03T11:22:55.155Z,58.30
2019-03-03T11:25:54.089Z,57.90
2019-03-03T11:29:00.297Z,58.70
2019-03-03T11:31:47.148Z,58.70
2019-03-03T11:34:33.878Z,57.50
2019-03-03T11:37:21.979Z,57.10
2019-03-03T11:40:01.211Z,57.20
2019-03-03T11:42:38.697Z,57.20
2019-03-03T11:45:18.146Z,58.50
2019-03-03T11:48:04.252Z,59.10
2019-03-03T11:50:54.232Z,59.20
2019-03-03T11:53:40.772Z,60.00
2019-03-03T11:56:41.157Z,59.90
2019-03-03T11:59:24.896Z,60.00
2019-03-03T12:02:18.790Z,61.50
2019-03-03T12:05:09.683Z,61.80
2019-03-03T12:07:54.751Z,61.70
2019-03-03T12:10:45.671Z,62.60
2019-03-03T12:13:48.638Z,61.80
2019-03-03T12:16:24.823Z,60.90
2019-03-03T12:19:05.268Z,62.00
2019-03-03T12:21:42.679Z,61.70
2019-03-03T12:24:39.625Z,61.60
2019-03-03T12:27:30.427Z,62.10
2019-03-03T12:30:20.190Z,62.50
2019-03-03T12:33:08.202Z,62.20
2019-03-03T12:35:46.048Z,62.50
2019-03-03T12:38:24.552Z,62.10
2019-03-03T12:41:10.861Z,60.80
2019-03-03T12:43:58.786Z,60.70
2019-03-03T12:46:37.153Z,61.80
2019-03-03T12:49:17.369Z,61.70
2019-03-03T12:52:17.479Z,61.80
2019-03-03T12:55:04.169Z,62.30
2019-03-03T12:57:40.168Z,61.50
2019-03-03T13:00:28.958Z,61.50
2019-03-03T13:03:23.039Z,61.20
2019-03-03T13:06:10.269Z,60.60
2019-03-03T13:09:04.341Z,59.70
2019-03-03T13:11:51.522Z,59.50
2019-03-03T13:14:42.474Z,59.00
2019-03-03T13:17:18.833Z,59.00
2019-03-03T13:20:11.245Z,59.30
2019-03-03T13:23:01.989Z,63.50
2019-03-03T13:25:52.716Z,58.60
2019-03-03T13:28:39.433Z,59.30
2019-03-03T13:31:29.349Z,59.50
2019-03-03T13:34:17.292Z,59.40
2019-03-03T13:37:14.321Z,60.00
2019-03-03T13:40:01.882Z,60.10
2019-03-03T13:42:55.837Z,59.70
2019-03-03T13:45:25.881Z,59.20
2019-03-03T13:47:56.885Z,59.40
2019-03-03T13:50:26.029Z,59.90
2019-03-03T13:52:54.969Z,59.40
2019-03-03T13:55:24.017Z,59.00
2019-03-03T13:57:53.757Z,59.30
2019-03-03T14:00:23.411Z,59.40
2019-03-03T14:02:52.420Z,59.30
2019-03-03T14:05:23.087Z,60.20
2019-03-03T14:07:52.149Z,59.60
2019-03-03T14:10:21.256Z,59.00
2019-03-03T14:12:50.299Z,59.00
2019-03-03T14:15:20.043Z,59.60
2019-03-03T14:17:49.282Z,59.50
2019-03-03T14:20:20.730Z,58.70
2019-03-03T14:22:50.150Z,58.60
2019-03-03T14:25:19.173Z,58.80
2019-03-03T14:27:48.466Z,59.20
2019-03-03T14:30:19.913Z,61.00
2019-03-03T14:32:49.587Z,59.40
2019-03-03T14:35:18.676Z,59.40
2019-03-03T14:37:47.701Z,58.90
2019-03-03T14:40:17.625Z,59.00
2019-03-03T14:42:46.841Z,58.90
2019-03-03T14:45:16.918Z,59.00
2019-03-03T14:47:47.470Z,58.90
2019-03-03T14:50:17.271Z,59.00
2019-03-03T14:52:47.429Z,59.00
2019-03-03T14:55:19.685Z,58.50
2019-03-03T14:57:49.236Z,58.20
2019-03-03T15:00:29.566Z,58.30
2019-03-03T15:03:01.594Z,58.40
2019-03-03T15:05:34.889Z,58.80
2019-03-03T15:10:20.035Z,58.40
2019-03-03T15:12:49.209Z,57.90
2019-03-03T15:15:18.913Z,57.50
2019-03-03T15:17:48.299Z,58.60
2019-03-03T15:20:17.510Z,58.30
2019-03-03T15:22:46.522Z,57.90
2019-03-03T15:25:15.766Z,57.90
2019-03-03T15:27:44.789Z,58.30
2019-03-03T15:30:27.636Z,57.30
2019-03-03T15:32:56.645Z,58.20
2019-03-03T15:35:28.731Z,56.90
2019-03-03T15:37:57.668Z,57.20
2019-03-03T15:40:26.973Z,56.40
2019-03-03T15:42:56.000Z,56.00
2019-03-03T15:45:25.335Z,55.70
2019-03-03T15:47:54.333Z,55.70
2019-03-03T15:50:23.544Z,55.50
2019-03-03T15:52:52.539Z,55.20
2019-03-03T15:55:23.921Z,55.90
2019-03-03T15:57:52.797Z,55.10
2019-03-03T16:00:26.492Z,55.30
2019-03-03T16:02:55.506Z,55.50
2019-03-03T16:05:25.552Z,55.40
2019-03-03T16:07:55.586Z,55.60
2019-03-03T16:12:53.156Z,55.10
2019-03-03T16:15:22.139Z,56.00
2019-03-03T16:17:51.160Z,56.30
2019-03-03T16:20:20.200Z,56.20
2019-03-03T16:22:49.198Z,56.80
2019-03-03T16:25:19.107Z,57.00
2019-03-03T16:27:48.343Z,57.20
2019-03-03T16:30:18.643Z,57.00
2019-03-03T16:32:47.769Z,57.50
2019-03-03T16:35:17.194Z,57.50
2019-03-03T16:37:50.275Z,57.80
2019-03-03T16:40:23.377Z,58.20
2019-03-03T16:43:18.335Z,58.30
2019-03-03T16:45:48.230Z,58.80
2019-03-03T16:48:19.036Z,59.10
2019-03-03T16:51:04.085Z,59.50
2019-03-03T17:13:39.268Z,59.80
2019-03-03T17:16:15.053Z,60.00
2019-03-03T17:19:06.303Z,61.20
2019-03-03T17:22:30.086Z,61.40
2019-03-03T17:29:05.207Z,62.60
2019-03-03T17:42:23.269Z,63.60
2019-03-03T17:47:55.049Z,63.80
2019-03-03T17:50:28.690Z,63.00
2019-03-03T17:52:58.621Z,63.40
2019-03-03T17:55:30.705Z,63.70
2019-03-03T17:57:59.814Z,63.80
2019-03-03T18:00:31.411Z,63.40
2019-03-03T18:03:00.882Z,64.20
2019-03-03T18:05:31.794Z,64.10
2019-03-03T18:08:01.017Z,65.00
2019-03-03T18:10:30.577Z,65.60
2019-03-03T18:13:01.733Z,66.20
2019-03-03T18:15:34.726Z,66.30
2019-03-03T18:18:04.087Z,66.60
2019-03-03T18:20:34.104Z,67.30
2019-03-03T18:23:05.610Z,66.60
2019-03-03T18:25:56.326Z,67.40
2019-03-03T18:28:31.022Z,68.80
2019-03-03T18:31:08.860Z,68.80
2019-03-03T18:33:42.193Z,68.50
2019-03-03T18:36:12.130Z,67.90
2019-03-03T18:39:24.940Z,69.30
2019-03-03T18:41:54.620Z,70.30
2019-03-03T18:44:38.902Z,69.80
2019-03-03T18:48:25.663Z,70.00
2019-03-03T18:50:55.368Z,70.10
2019-03-03T18:53:26.376Z,70.40
2019-03-03T18:56:38.182Z,70.80
2019-03-03T18:59:50.186Z,71.00
2019-03-03T19:02:48.216Z,72.00
2019-03-03T19:14:28.496Z,71.70
2019-03-03T19:16:56.828Z,73.00
2019-03-03T19:19:36.117Z,72.00
2019-03-03T19:22:09.215Z,71.30
2019-03-03T19:24:39.922Z,71.30
2019-03-03T19:27:13.934Z,71.50
2019-03-03T19:29:46.412Z,71.20
2019-03-03T19:32:21.760Z,71.00
2019-03-03T19:34:54.684Z,71.00
2019-03-03T19:37:26.675Z,71.20
2019-03-03T19:39:58.251Z,71.30
2019-03-03T19:42:27.518Z,70.90
2019-03-03T19:44:57.008Z,71.00
2019-03-03T19:51:29.016Z,71.60
2019-03-03T19:54:00.236Z,72.60
2019-03-03T19:56:44.985Z,73.10
2019-03-03T19:59:24.816Z,73.40
2019-03-03T20:02:05.522Z,73.70
2019-03-03T20:04:35.834Z,74.00
2019-03-03T20:07:05.074Z,74.00
2019-03-03T20:09:36.101Z,73.80
2019-03-03T20:12:05.225Z,73.90
2019-03-03T20:14:34.223Z,74.50
2019-03-03T20:17:05.618Z,74.90
2019-03-03T20:19:34.622Z,75.80
2019-03-03T20:22:03.662Z,76.40
2019-03-03T20:24:32.714Z,77.50
2019-03-03T20:27:01.633Z,77.30
2019-03-03T20:29:30.741Z,77.60
2019-03-03T20:32:01.271Z,78.40
2019-03-03T20:34:31.839Z,78.80
2019-03-03T20:37:01.196Z,79.20
2019-03-03T20:39:32.232Z,79.80
2019-03-03T20:42:01.909Z,79.80
2019-03-03T20:44:32.140Z,80.30
2019-03-03T20:47:02.554Z,79.90
2019-03-03T20:49:31.779Z,80.20
2019-03-03T20:52:02.334Z,80.30
2019-03-03T20:54:32.256Z,79.70
2019-03-03T20:57:07.227Z,79.70
2019-03-03T20:59:38.324Z,79.20
2019-03-03T21:02:11.121Z,78.60
2019-03-03T21:04:58.079Z,77.70
2019-03-03T21:07:22.611Z,77.80
2019-03-03T21:10:00.722Z,77.40
2019-03-03T21:12:55.519Z,76.90
2019-03-03T21:15:25.187Z,77.20
2019-03-03T21:17:54.237Z,76.80
2019-03-03T21:20:23.768Z,76.90
2019-03-03T21:23:10.479Z,76.60
2019-03-03T21:25:41.139Z,76.40
2019-03-03T21:28:10.294Z,76.20
2019-03-03T21:30:39.304Z,76.00
2019-03-03T21:33:08.729Z,76.00
2019-03-03T21:35:37.848Z,76.30
2019-03-03T21:38:07.625Z,76.80
2019-03-03T21:40:44.216Z,76.70
2019-03-03T21:43:17.079Z,77.20
2019-03-03T21:45:56.382Z,77.10
2019-03-03T21:48:30.835Z,76.90
2019-03-03T21:51:00.559Z,77.00
2019-03-03T21:53:33.634Z,76.80
2019-03-03T21:56:02.621Z,76.40
2019-03-03T21:58:31.862Z,76.80
2019-03-03T22:01:00.940Z,76.30
2019-03-03T22:03:31.644Z,76.70
2019-03-03T22:06:07.068Z,76.90
2019-03-03T22:08:36.153Z,77.20
2019-03-03T22:11:05.198Z,77.50
2019-03-03T22:13:35.518Z,78.30
2019-03-03T22:16:04.531Z,78.70
2019-03-03T22:18:34.865Z,79.60
2019-03-03T22:21:05.432Z,80.30
2019-03-03T22:23:34.698Z,81.70
2019-03-03T22:26:03.685Z,82.70
2019-03-03T22:28:32.799Z,84.00
2019-03-03T22:31:07.328Z,83.80
2019-03-03T22:33:36.296Z,83.90
2019-03-03T22:36:06.672Z,84.60
2019-03-03T22:38:35.707Z,84.60
2019-03-03T22:41:04.786Z,85.30
2019-03-03T22:43:33.669Z,86.20
2019-03-03T22:46:03.388Z,86.30
2019-03-03T22:48:34.922Z,86.70
2019-03-03T22:51:03.945Z,87.50
2019-03-03T22:53:39.773Z,88.10
2019-03-03T22:56:10.260Z,87.90
2019-03-03T22:58:39.445Z,89.00
2019-03-03T23:01:34.362Z,89.30
2019-03-03T23:04:28.093Z,89.30
2019-03-03T23:07:05.426Z,90.10
2019-03-03T23:10:10.044Z,90.30
2019-03-03T23:28:13.208Z,91.60
2019-03-03T23:30:42.197Z,91.70
2019-03-03T23:33:11.821Z,91.50
2019-03-03T23:35:41.930Z,91.40
2019-03-03T23:38:11.303Z,91.30
2019-03-03T23:40:42.569Z,91.50
2019-03-03T23:43:13.242Z,91.50
2019-03-03T23:45:42.700Z,91.60
2019-03-03T23:48:18.327Z,92.10
2019-03-03T23:50:45.014Z,92.60
2019-03-03T23:53:13.902Z,92.30
2019-03-03T23:55:44.109Z,92.50
2019-03-03T23:58:13.011Z,92.60
